Time;durP1;ratioP1;P1;durP2;ratioP2;P2;SDS_P1;SDS_P2;PMS_P1;PMS_P2;Temp;Humidity;BMP_temperature;BMP_pressure;BME280_temperature;BME280_humidity;BME280_pressure;Samples;Min_cycle;Max_cycle;Signal;HPM_P1;HPM_P2
2021/10/28 00:14:20;;;;;;;;;22.75;19.00;;;;;;;;4997407;28;45669;-68
2021/10/28 00:16:48;;;;;;;;;20.75;19.25;;;;;;;;4997591;28;45791;-69
2021/10/28 00:19:14;;;;;;;;;18.00;17.00;;;;;;;;4997282;28;45299;-68
2021/10/28 00:21:40;;;;;;;;;22.50;18.75;;;;;;;;4997552;28;45346;-68
2021/10/28 00:24:06;;;;;;;;;24.25;20.50;;;;;;;;4996088;28;48276;-67
2021/10/28 00:26:35;;;;;;;;;23.25;18.50;;;;;;;;4997347;28;45306;-65
2021/10/28 00:29:02;;;;;;;;;22.00;20.00;;;;;;;;4996338;28;45388;-66
2021/10/28 00:31:29;;;;;;;;;18.25;18.25;;;;;;;;4997129;28;45315;-66
2021/10/28 00:33:55;;;;;;;;;18.50;17.00;;;;;;;;4996829;28;46590;-65
2021/10/28 00:36:20;;;;;;;;;23.50;20.25;;;;;;;;4998448;28;45532;-65
2021/10/28 00:38:46;;;;;;;;;18.25;18.25;;;;;;;;4997388;28;45363;-65
2021/10/28 00:41:11;;;;;;;;;24.00;20.25;;;;;;;;5011206;28;45565;-63
2021/10/28 00:43:43;;;;;;;;;20.25;18.00;;;;;;;;4995564;28;46076;-64
2021/10/28 00:46:08;;;;;;;;;20.75;17.75;;;;;;;;4996734;28;45312;-64
2021/10/28 00:48:34;;;;;;;;;22.00;18.50;;;;;;;;4997149;28;45453;-68
2021/10/28 00:50:59;;;;;;;;;20.50;19.25;;;;;;;;4997293;28;45356;-71
2021/10/28 00:53:24;;;;;;;;;21.25;19.75;;;;;;;;4996788;28;45400;-68
2021/10/28 00:55:52;;;;;;;;;19.75;17.50;;;;;;;;4996778;28;45340;-69
2021/10/28 00:58:20;;;;;;;;;19.00;18.00;;;;;;;;5012187;28;45455;-70
2021/10/28 01:00:46;;;;;;;;;22.25;19.75;;;;;;;;4997088;28;45539;-69
2021/10/28 01:03:11;;;;;;;;;24.75;19.75;;;;;;;;4996148;28;45412;-69
2021/10/28 01:05:37;;;;;;;;;21.25;19.25;;;;;;;;4994928;28;45510;-68
2021/10/28 01:08:03;;;;;;;;;19.25;19.00;;;;;;;;4999529;28;45391;-65
2021/10/28 01:10:28;;;;;;;;;19.50;19.25;;;;;;;;4995311;28;45685;-67
2021/10/28 01:12:54;;;;;;;;;22.50;19.50;;;;;;;;4995473;28;46753;-68
2021/10/28 01:15:19;;;;;;;;;20.75;20.00;;;;;;;;4994902;28;45429;-63
2021/10/28 01:17:44;;;;;;;;;22.75;18.25;;;;;;;;4996539;28;45260;-63
2021/10/28 01:20:10;;;;;;;;;23.00;21.50;;;;;;;;4996502;28;45563;-66
2021/10/28 01:22:38;;;;;;;;;19.75;18.75;;;;;;;;4996632;28;45961;-65
2021/10/28 01:25:03;;;;;;;;;21.25;20.00;;;;;;;;5011608;28;45814;-65
2021/10/28 01:27:28;;;;;;;;;22.00;21.50;;;;;;;;4996725;28;45418;-66
2021/10/28 01:29:53;;;;;;;;;35.75;28.75;;;;;;;;5011801;28;45280;-66
2021/10/28 01:32:19;;;;;;;;;22.25;19.50;;;;;;;;5010705;28;45351;-67
2021/10/28 01:34:45;;;;;;;;;23.00;19.25;;;;;;;;4995518;28;45565;-68
2021/10/28 01:37:12;;;;;;;;;19.75;16.25;;;;;;;;4995879;28;45209;-69
2021/10/28 01:39:37;;;;;;;;;22.50;22.00;;;;;;;;4996683;28;45237;-67
2021/10/28 01:42:04;;;;;;;;;22.50;21.25;;;;;;;;4995915;28;45289;-70
2021/10/28 01:44:30;;;;;;;;;25.75;21.25;;;;;;;;4998499;28;45512;-69
2021/10/28 01:46:56;;;;;;;;;28.00;22.50;;;;;;;;5014594;28;45478;-67
2021/10/28 01:49:25;;;;;;;;;24.00;22.00;;;;;;;;5015546;28;45586;-68
2021/10/28 01:51:53;;;;;;;;;22.50;20.75;;;;;;;;5013902;28;45425;-66
2021/10/28 01:54:18;;;;;;;;;25.00;19.25;;;;;;;;5015584;28;45328;-67
2021/10/28 01:56:44;;;;;;;;;27.00;22.00;;;;;;;;5015851;28;45392;-65
2021/10/28 01:59:10;;;;;;;;;50.75;41.75;;;;;;;;5016026;28;45376;-65
2021/10/28 02:01:35;;;;;;;;;40.25;35.00;;;;;;;;5015918;28;45472;-69
2021/10/28 02:04:00;;;;;;;;;28.00;24.75;;;;;;;;5015690;28;45339;-68
2021/10/28 02:06:28;;;;;;;;;23.75;22.50;;;;;;;;5015653;28;45566;-67
2021/10/28 02:08:53;;;;;;;;;25.00;20.75;;;;;;;;5015762;28;45577;-68
2021/10/28 02:11:18;;;;;;;;;24.75;23.50;;;;;;;;5014211;28;46288;-67
2021/10/28 02:13:43;;;;;;;;;22.75;20.00;;;;;;;;5015519;28;45400;-65
2021/10/28 02:16:09;;;;;;;;;19.50;18.25;;;;;;;;5015789;28;45348;-69
2021/10/28 02:18:34;;;;;;;;;19.25;19.25;;;;;;;;5015416;28;45652;-67
2021/10/28 02:21:00;;;;;;;;;23.25;21.00;;;;;;;;5015250;28;46168;-69
2021/10/28 02:23:25;;;;;;;;;20.50;18.00;;;;;;;;5015533;28;45331;-69
2021/10/28 02:25:50;;;;;;;;;22.00;20.00;;;;;;;;5015784;28;45292;-67
2021/10/28 02:28:15;;;;;;;;;22.25;17.25;;;;;;;;5016050;28;45521;-63
2021/10/28 02:30:41;;;;;;;;;24.50;22.50;;;;;;;;5015518;28;45385;-65
2021/10/28 02:33:06;;;;;;;;;24.00;18.25;;;;;;;;5015580;28;45378;-68
2021/10/28 02:35:31;;;;;;;;;23.50;21.00;;;;;;;;5015354;28;45213;-67
2021/10/28 02:37:57;;;;;;;;;23.25;20.50;;;;;;;;5015476;28;45588;-68
2021/10/28 02:40:22;;;;;;;;;18.50;17.00;;;;;;;;5014996;28;45639;-66
2021/10/28 02:42:47;;;;;;;;;19.75;18.50;;;;;;;;5014971;28;45226;-68
2021/10/28 02:45:13;;;;;;;;;25.50;20.25;;;;;;;;5017837;28;45365;-66
2021/10/28 02:47:39;;;;;;;;;19.50;16.25;;;;;;;;5018939;28;45224;-65
2021/10/28 02:50:04;;;;;;;;;16.25;16.00;;;;;;;;5033383;28;47504;-63
2021/10/28 02:52:29;;;;;;;;;20.75;18.25;;;;;;;;5018323;28;45458;-65
2021/10/28 02:54:55;;;;;;;;;21.25;19.50;;;;;;;;5018879;28;45610;-65
2021/10/28 02:57:20;;;;;;;;;24.00;20.50;;;;;;;;5019014;28;45614;-65
2021/10/28 02:59:45;;;;;;;;;23.00;20.50;;;;;;;;5018456;28;45953;-65
2021/10/28 03:02:11;;;;;;;;;21.50;19.50;;;;;;;;5018837;28;45333;-65
2021/10/28 03:04:36;;;;;;;;;24.00;22.00;;;;;;;;5018531;28;45355;-66
2021/10/28 03:07:02;;;;;;;;;21.50;16.75;;;;;;;;5011307;28;45518;-69
2021/10/28 03:09:28;;;;;;;;;22.00;16.75;;;;;;;;4996449;28;46031;-65
2021/10/28 03:11:56;;;;;;;;;17.00;15.50;;;;;;;;5013338;28;45600;-63
2021/10/28 03:14:30;;;;;;;;;23.50;18.00;;;;;;;;4995122;28;45253;-66
2021/10/28 03:27:30;;;;;;;;;20.50;19.75;;;;;;;;4998055;28;45257;-67
2021/10/28 03:29:58;;;;;;;;;18.50;18.00;;;;;;;;4997789;28;46203;-64
2021/10/28 03:32:24;;;;;;;;;24.75;20.00;;;;;;;;4997718;28;45446;-65
2021/10/28 03:34:50;;;;;;;;;19.50;18.00;;;;;;;;4996877;28;45405;-66
2021/10/28 03:37:23;;;;;;;;;16.00;15.75;;;;;;;;5013343;28;45485;-68
2021/10/28 04:06:21;;;;;;;;;19.25;18.25;;;;;;;;5016473;28;45370;-64
2021/10/28 04:17:03;;;;;;;;;22.50;18.00;;;;;;;;5017228;28;45333;-64
2021/10/28 04:30:16;;;;;;;;;18.75;18.00;;;;;;;;5017423;28;45469;-67
2021/10/28 04:32:42;;;;;;;;;19.25;16.75;;;;;;;;5016581;28;45457;-69
2021/10/28 04:35:07;;;;;;;;;25.75;21.25;;;;;;;;5016861;28;45166;-71
2021/10/28 04:37:33;;;;;;;;;20.00;18.00;;;;;;;;5016688;28;45240;-70
2021/10/28 04:39:58;;;;;;;;;20.50;18.50;;;;;;;;4999016;28;45266;-71
2021/10/28 04:42:23;;;;;;;;;23.00;21.50;;;;;;;;5032145;28;46993;-69
2021/10/28 04:44:49;;;;;;;;;21.25;19.00;;;;;;;;5016635;28;45253;-68
2021/10/28 04:47:14;;;;;;;;;20.75;19.00;;;;;;;;5017121;28;45340;-68
2021/10/28 04:49:39;;;;;;;;;19.75;19.50;;;;;;;;5017651;28;45690;-68
2021/10/28 04:52:05;;;;;;;;;24.00;18.75;;;;;;;;5016998;28;45384;-70
2021/10/28 04:54:31;;;;;;;;;20.25;19.75;;;;;;;;5016987;28;45333;-67
2021/10/28 04:56:56;;;;;;;;;23.50;19.75;;;;;;;;5017030;28;45320;-66
2021/10/28 04:59:22;;;;;;;;;24.00;19.50;;;;;;;;5016423;28;45383;-68
2021/10/28 05:01:47;;;;;;;;;22.75;18.25;;;;;;;;5016381;28;45383;-66
2021/10/28 05:04:13;;;;;;;;;23.50;21.75;;;;;;;;5016211;28;45292;-68
2021/10/28 05:06:38;;;;;;;;;18.25;16.75;;;;;;;;5014981;28;45362;-67
2021/10/28 05:09:04;;;;;;;;;26.75;22.25;;;;;;;;5016205;28;45356;-68
2021/10/28 05:11:30;;;;;;;;;23.75;21.50;;;;;;;;5015806;28;46231;-65
2021/10/28 05:13:55;;;;;;;;;20.25;19.50;;;;;;;;5015559;28;45302;-69
2021/10/28 05:16:21;;;;;;;;;21.00;21.00;;;;;;;;5015974;28;45220;-68
2021/10/28 05:18:46;;;;;;;;;21.25;21.25;;;;;;;;5016421;28;45304;-68
2021/10/28 05:21:12;;;;;;;;;25.25;23.50;;;;;;;;5016019;28;45465;-68
2021/10/28 05:23:39;;;;;;;;;19.50;19.50;;;;;;;;5014480;28;45300;-69
2021/10/28 05:26:04;;;;;;;;;25.25;19.50;;;;;;;;5015825;28;45276;-67
2021/10/28 05:28:30;;;;;;;;;26.00;23.50;;;;;;;;5015882;28;45232;-67
2021/10/28 05:30:55;;;;;;;;;27.75;25.00;;;;;;;;5015734;28;46977;-69
2021/10/28 05:33:20;;;;;;;;;27.50;22.25;;;;;;;;5016288;28;46125;-68
2021/10/28 05:35:45;;;;;;;;;23.25;22.25;;;;;;;;5014560;28;45399;-67
2021/10/28 05:38:11;;;;;;;;;26.50;24.50;;;;;;;;5015959;28;45385;-69
2021/10/28 05:40:36;;;;;;;;;25.75;24.00;;;;;;;;5015644;28;46841;-69
2021/10/28 05:43:02;;;;;;;;;27.50;23.25;;;;;;;;5015602;28;45267;-65
2021/10/28 05:45:28;;;;;;;;;30.25;25.75;;;;;;;;5015607;28;45378;-68
2021/10/28 05:47:53;;;;;;;;;24.00;22.50;;;;;;;;5015872;28;45657;-69
2021/10/28 05:50:21;;;;;;;;;27.00;21.50;;;;;;;;5014529;28;46176;-68
2021/10/28 05:52:47;;;;;;;;;29.00;22.25;;;;;;;;5030697;28;45831;-68
2021/10/28 05:55:14;;;;;;;;;26.75;23.00;;;;;;;;5015729;28;45246;-66
2021/10/28 05:57:39;;;;;;;;;26.75;21.50;;;;;;;;5013434;28;45553;-65
2021/10/28 06:00:07;;;;;;;;;24.25;23.00;;;;;;;;4996763;28;46339;-67
2021/10/28 06:02:32;;;;;;;;;29.25;26.25;;;;;;;;4992503;28;45380;-67
2021/10/28 06:04:58;;;;;;;;;32.75;25.00;;;;;;;;4993796;28;45562;-66
2021/10/28 06:07:23;;;;;;;;;29.00;24.00;;;;;;;;4995413;28;45340;-68
2021/10/28 06:09:48;;;;;;;;;24.50;22.50;;;;;;;;4995563;28;46061;-68
2021/10/28 06:12:15;;;;;;;;;23.25;22.75;;;;;;;;5010414;28;45448;-68
2021/10/28 06:14:40;;;;;;;;;32.50;30.25;;;;;;;;4995627;28;45443;-66
2021/10/28 06:17:09;;;;;;;;;21.25;20.50;;;;;;;;4995520;28;45353;-69
2021/10/28 06:19:35;;;;;;;;;25.75;23.00;;;;;;;;4995005;28;45332;-69
2021/10/28 06:22:01;;;;;;;;;30.50;24.75;;;;;;;;4995210;28;45465;-64
2021/10/28 06:24:26;;;;;;;;;23.25;22.25;;;;;;;;5026300;28;45871;-66
2021/10/28 06:26:52;;;;;;;;;26.25;24.00;;;;;;;;5032951;28;45520;-65
2021/10/28 06:29:18;;;;;;;;;26.75;24.75;;;;;;;;5033490;28;45507;-67
2021/10/28 06:31:46;;;;;;;;;25.75;23.00;;;;;;;;5033780;28;45491;-69
2021/10/28 06:34:18;;;;;;;;;28.75;24.50;;;;;;;;5034817;28;45171;-67
2021/10/28 06:36:43;;;;;;;;;33.50;26.75;;;;;;;;5035149;28;45359;-69
2021/10/28 06:39:09;;;;;;;;;25.25;24.75;;;;;;;;5034601;28;45393;-68
2021/10/28 06:41:34;;;;;;;;;26.25;23.25;;;;;;;;5034418;28;45294;-70
2021/10/28 06:44:00;;;;;;;;;26.00;24.00;;;;;;;;5034425;28;45378;-67
2021/10/28 06:46:29;;;;;;;;;32.00;27.00;;;;;;;;5033383;28;45594;-69
2021/10/28 06:48:55;;;;;;;;;27.75;25.50;;;;;;;;5034226;28;46271;-68
2021/10/28 06:51:21;;;;;;;;;30.75;24.75;;;;;;;;5034551;28;45504;-70
2021/10/28 06:53:57;;;;;;;;;23.75;19.50;;;;;;;;5034289;28;46023;-67
2021/10/28 07:04:41;;;;;;;;;29.25;25.25;;;;;;;;5002097;28;45360;-65
2021/10/28 07:07:06;;;;;;;;;28.00;23.00;;;;;;;;5023451;28;45498;-71
2021/10/28 07:09:37;;;;;;;;;29.50;25.00;;;;;;;;5024288;28;46528;-69
2021/10/28 07:12:26;;;;;;;;;25.75;24.50;;;;;;;;5033326;28;45396;-67
2021/10/28 07:14:59;;;;;;;;;33.25;26.00;;;;;;;;5033538;28;45420;-70
2021/10/28 07:20:27;;;;;;;;;29.50;24.75;;;;;;;;5017470;28;45444;-67
2021/10/28 08:29:58;;;;;;;;;43.75;36.25;;;;;;;;5016637;28;45281;-68
2021/10/28 08:32:04;;;;;;;;;34.50;30.50;;;;;;;;5010968;28;45292;-66
2021/10/28 08:34:32;;;;;;;;;33.25;30.00;;;;;;;;5016371;28;47247;-68
2021/10/28 08:37:15;;;;;;;;;31.00;26.00;;;;;;;;5016827;28;45702;-67
2021/10/28 08:39:41;;;;;;;;;37.00;31.00;;;;;;;;5016701;28;45435;-69
2021/10/28 08:42:09;;;;;;;;;34.00;29.75;;;;;;;;5016903;28;45499;-71
2021/10/28 08:44:38;;;;;;;;;34.00;28.75;;;;;;;;5016316;28;45498;-69
2021/10/28 08:47:04;;;;;;;;;37.00;28.75;;;;;;;;5016181;28;45411;-69
2021/10/28 08:49:34;;;;;;;;;31.00;28.75;;;;;;;;5016155;28;45265;-67
2021/10/28 09:24:29;;;;;;;;;30.50;29.25;;;;;;;;5016102;28;45220;-71
2021/10/28 09:27:03;;;;;;;;;35.50;30.50;;;;;;;;5015528;28;45581;-71
2021/10/28 09:45:33;;;;;;;;;35.00;31.00;;;;;;;;5015593;28;45417;-67
2021/10/28 09:50:35;;;;;;;;;34.25;29.75;;;;;;;;5015052;28;45413;-70
2021/10/28 09:53:12;;;;;;;;;42.00;32.50;;;;;;;;5013666;28;45482;-70
2021/10/28 09:58:22;;;;;;;;;27.50;25.75;;;;;;;;5014944;28;45300;-69
2021/10/28 10:00:47;;;;;;;;;30.50;29.25;;;;;;;;5015315;28;45390;-67
2021/10/28 10:03:22;;;;;;;;;32.25;29.00;;;;;;;;5015109;28;45264;-64
2021/10/28 10:05:55;;;;;;;;;28.50;26.75;;;;;;;;5015460;28;45329;-68
2021/10/28 10:08:20;;;;;;;;;31.75;27.50;;;;;;;;5013751;28;48257;-68
2021/10/28 10:10:45;;;;;;;;;27.25;23.75;;;;;;;;5013494;28;45591;-66
2021/10/28 10:13:11;;;;;;;;;27.25;26.75;;;;;;;;5015282;28;45518;-66
2021/10/28 10:15:37;;;;;;;;;35.50;30.50;;;;;;;;5015257;28;45563;-69
2021/10/28 10:18:06;;;;;;;;;27.75;26.25;;;;;;;;5015190;28;45292;-67
2021/10/28 10:20:42;;;;;;;;;27.25;24.00;;;;;;;;5014963;28;45503;-68
2021/10/28 10:23:42;;;;;;;;;32.00;27.50;;;;;;;;5015127;28;45332;-66
2021/10/28 11:05:34;;;;;;;;;24.75;21.75;;;;;;;;5015589;28;45346;-68
2021/10/28 11:30:49;;;;;;;;;20.50;17.50;;;;;;;;5017128;28;45359;-71
2021/10/28 13:49:12;;;;;;;;;8.50;7.75;;;;;;;;5015198;28;45416;-69
2021/10/28 14:39:15;;;;;;;;;10.00;9.50;;;;;;;;5015632;28;45321;-66
2021/10/28 15:28:08;;;;;;;;;9.75;9.00;;;;;;;;5017939;28;45493;-70
2021/10/28 15:51:51;;;;;;;;;10.75;7.50;;;;;;;;5017027;28;45312;-67
2021/10/28 16:24:17;;;;;;;;;12.00;9.00;;;;;;;;5016794;28;45217;-67
2021/10/28 16:26:42;;;;;;;;;11.00;10.00;;;;;;;;5016523;28;45484;-68
2021/10/28 16:29:09;;;;;;;;;11.75;10.00;;;;;;;;5016247;28;45347;-69
2021/10/28 16:31:35;;;;;;;;;23.00;20.25;;;;;;;;5016808;28;45285;-70
2021/10/28 16:34:00;;;;;;;;;15.50;13.25;;;;;;;;5015278;28;45465;-67
2021/10/28 16:36:25;;;;;;;;;11.00;9.50;;;;;;;;5016529;28;45339;-70
2021/10/28 16:38:52;;;;;;;;;15.00;12.00;;;;;;;;5016752;28;45355;-70
2021/10/28 16:41:17;;;;;;;;;8.25;7.75;;;;;;;;5016568;28;45360;-67
2021/10/28 16:43:42;;;;;;;;;8.00;7.00;;;;;;;;5016216;28;45425;-70
2021/10/28 16:46:08;;;;;;;;;6.50;4.50;;;;;;;;5016341;28;46200;-69
2021/10/28 16:48:34;;;;;;;;;7.50;7.50;;;;;;;;5014987;28;45477;-71
2021/10/28 16:51:00;;;;;;;;;11.00;11.00;;;;;;;;5016218;28;45394;-70
2021/10/28 16:53:25;;;;;;;;;9.50;9.50;;;;;;;;5016710;28;45269;-70
2021/10/28 16:55:51;;;;;;;;;12.25;8.50;;;;;;;;5017256;28;45466;-68
2021/10/28 16:58:16;;;;;;;;;11.00;11.00;;;;;;;;5014954;28;45289;-69
2021/10/28 17:00:42;;;;;;;;;11.00;10.75;;;;;;;;5016338;28;45344;-70
2021/10/28 17:03:07;;;;;;;;;16.00;13.50;;;;;;;;5015088;28;45467;-68
2021/10/28 17:05:32;;;;;;;;;14.50;10.75;;;;;;;;5016031;28;45204;-67
2021/10/28 17:07:57;;;;;;;;;11.25;10.50;;;;;;;;5016301;28;45374;-69
2021/10/28 17:10:23;;;;;;;;;16.25;15.00;;;;;;;;5015131;28;45365;-67
2021/10/28 17:12:48;;;;;;;;;14.25;13.25;;;;;;;;5016362;28;45614;-65
2021/10/28 17:15:13;;;;;;;;;12.75;11.00;;;;;;;;5015580;28;45731;-65
2021/10/28 17:17:38;;;;;;;;;12.75;8.50;;;;;;;;5015750;28;45347;-66
2021/10/28 17:20:06;;;;;;;;;12.00;11.25;;;;;;;;5015540;28;45276;-66
2021/10/28 17:22:33;;;;;;;;;12.50;11.50;;;;;;;;5015864;28;45378;-68
2021/10/28 17:24:59;;;;;;;;;8.50;8.50;;;;;;;;5015430;28;46964;-69
2021/10/28 17:27:24;;;;;;;;;14.00;13.00;;;;;;;;5014402;28;45540;-66
2021/10/28 17:29:49;;;;;;;;;26.50;23.25;;;;;;;;5015997;28;45319;-69
2021/10/28 17:32:15;;;;;;;;;21.00;14.25;;;;;;;;5014562;28;45293;-67
2021/10/28 17:34:40;;;;;;;;;17.50;14.00;;;;;;;;5013782;28;47081;-65
2021/10/28 17:37:06;;;;;;;;;20.75;14.75;;;;;;;;5015251;28;45449;-67
2021/10/28 17:39:31;;;;;;;;;18.00;17.00;;;;;;;;5014017;28;45361;-67
2021/10/28 17:41:58;;;;;;;;;16.25;12.75;;;;;;;;5013960;28;45340;-69
2021/10/28 17:44:33;;;;;;;;;17.00;15.75;;;;;;;;5015475;28;45422;-69
2021/10/28 17:46:58;;;;;;;;;35.00;27.50;;;;;;;;5014857;28;45318;-68
2021/10/28 17:49:23;;;;;;;;;15.25;13.00;;;;;;;;5015882;28;45308;-73
2021/10/28 17:51:49;;;;;;;;;11.75;11.75;;;;;;;;5015888;28;45343;-67
2021/10/28 17:54:14;;;;;;;;;14.50;13.00;;;;;;;;5013814;28;46275;-68
2021/10/28 17:56:39;;;;;;;;;18.75;15.75;;;;;;;;5015156;28;45455;-68
2021/10/28 17:59:05;;;;;;;;;21.75;16.50;;;;;;;;5015336;28;45785;-69
2021/10/28 18:01:34;;;;;;;;;16.50;12.25;;;;;;;;5015450;28;45237;-68
2021/10/28 18:04:03;;;;;;;;;17.00;16.00;;;;;;;;5013536;28;46713;-64
2021/10/28 18:06:29;;;;;;;;;18.25;15.25;;;;;;;;5014751;28;45354;-65
2021/10/28 18:08:55;;;;;;;;;16.25;13.75;;;;;;;;5015515;28;45338;-65
2021/10/28 18:11:20;;;;;;;;;17.75;15.00;;;;;;;;5015283;28;45301;-67
2021/10/28 18:13:46;;;;;;;;;14.50;13.00;;;;;;;;5014277;28;45506;-67
2021/10/28 18:16:11;;;;;;;;;19.00;17.00;;;;;;;;5013683;28;45627;-66
2021/10/28 18:18:37;;;;;;;;;17.50;16.25;;;;;;;;5014948;28;45989;-68
2021/10/28 18:21:03;;;;;;;;;21.25;16.50;;;;;;;;5015287;28;45406;-71
2021/10/28 18:23:29;;;;;;;;;14.75;14.25;;;;;;;;5015011;28;46064;-67
2021/10/28 18:25:55;;;;;;;;;16.00;14.00;;;;;;;;5013610;28;45407;-67
2021/10/28 18:28:20;;;;;;;;;17.00;16.25;;;;;;;;5015006;28;45354;-64
2021/10/28 18:30:45;;;;;;;;;27.25;23.25;;;;;;;;5015142;28;45271;-67
2021/10/28 18:33:11;;;;;;;;;17.00;16.00;;;;;;;;5013288;28;46966;-69
2021/10/28 18:35:37;;;;;;;;;17.50;14.75;;;;;;;;5014981;28;45197;-66
2021/10/28 18:38:02;;;;;;;;;16.25;14.75;;;;;;;;5014200;28;45419;-68
2021/10/28 18:40:28;;;;;;;;;17.25;17.25;;;;;;;;5013995;28;45168;-67
2021/10/28 18:42:53;;;;;;;;;16.25;14.25;;;;;;;;5014638;28;46089;-70
2021/10/28 18:45:20;;;;;;;;;14.75;11.25;;;;;;;;5016445;28;45233;-73
2021/10/28 18:47:46;;;;;;;;;22.25;15.50;;;;;;;;5016558;28;45423;-77
2021/10/28 18:50:11;;;;;;;;;23.25;18.50;;;;;;;;5015019;28;45407;-71
2021/10/28 18:52:37;;;;;;;;;20.75;18.25;;;;;;;;5013708;28;45382;-73
2021/10/28 18:55:03;;;;;;;;;18.50;16.25;;;;;;;;5016695;28;45497;-73
2021/10/28 18:57:28;;;;;;;;;24.00;21.50;;;;;;;;5015510;28;45412;-72
2021/10/28 18:59:54;;;;;;;;;23.00;20.25;;;;;;;;5015006;28;45766;-71
2021/10/28 19:02:19;;;;;;;;;25.50;18.75;;;;;;;;5014699;28;45517;-72
2021/10/28 19:04:44;;;;;;;;;20.50;16.25;;;;;;;;5015305;28;45401;-67
2021/10/28 19:07:11;;;;;;;;;19.25;15.50;;;;;;;;5013890;28;45398;-68
2021/10/28 19:09:37;;;;;;;;;22.25;20.25;;;;;;;;5014899;28;45580;-67
2021/10/28 19:12:03;;;;;;;;;15.00;14.25;;;;;;;;5015706;28;46326;-68
2021/10/28 19:14:29;;;;;;;;;17.75;16.50;;;;;;;;5016441;28;45319;-75
2021/10/28 19:16:54;;;;;;;;;24.50;20.25;;;;;;;;5016711;28;45209;-76
2021/10/28 19:19:20;;;;;;;;;20.00;14.25;;;;;;;;5016027;28;45287;-76
2021/10/28 19:21:45;;;;;;;;;19.50;18.50;;;;;;;;5015727;28;46202;-76
2021/10/28 19:24:10;;;;;;;;;18.25;16.00;;;;;;;;5015934;28;45284;-76
2021/10/28 19:26:36;;;;;;;;;23.00;18.75;;;;;;;;5018105;28;45303;-74
2021/10/28 19:29:06;;;;;;;;;26.00;21.50;;;;;;;;5019461;28;45591;-75
2021/10/28 19:31:34;;;;;;;;;25.75;19.00;;;;;;;;5019593;28;47571;-76
2021/10/28 19:34:02;;;;;;;;;29.25;26.00;;;;;;;;5020547;28;45279;-75
2021/10/28 19:46:49;;;;;;;;;16.25;14.25;;;;;;;;5023347;28;45491;-75
2021/10/28 19:49:15;;;;;;;;;23.75;17.00;;;;;;;;5022989;28;45429;-78
2021/10/28 19:51:41;;;;;;;;;18.50;14.75;;;;;;;;5020956;28;45353;-77
2021/10/28 19:54:12;;;;;;;;;24.00;22.00;;;;;;;;5019653;28;45917;-78
2021/10/28 19:56:39;;;;;;;;;17.00;16.25;;;;;;;;5020918;28;45355;-77
2021/10/28 19:59:10;;;;;;;;;18.75;18.00;;;;;;;;5020598;28;45597;-77
2021/10/28 20:02:00;;;;;;;;;22.00;16.50;;;;;;;;5020764;28;46519;-74
2021/10/28 20:07:04;;;;;;;;;18.75;16.75;;;;;;;;5021088;28;45468;-76
2021/10/28 20:20:22;;;;;;;;;29.50;26.00;;;;;;;;5024567;28;45388;-74
2021/10/28 20:22:48;;;;;;;;;24.25;18.75;;;;;;;;5020827;28;45406;-75
2021/10/28 20:25:15;;;;;;;;;32.00;27.00;;;;;;;;5018289;28;46231;-75
2021/10/28 20:27:42;;;;;;;;;25.50;25.50;;;;;;;;5019519;28;45477;-74
2021/10/28 20:30:09;;;;;;;;;50.25;39.00;;;;;;;;5018891;28;45487;-77
2021/10/28 20:32:35;;;;;;;;;32.50;30.75;;;;;;;;5018817;28;46512;-73
2021/10/28 20:37:28;;;;;;;;;24.00;17.25;;;;;;;;5016805;28;45509;-74
2021/10/28 20:39:54;;;;;;;;;24.00;22.00;;;;;;;;5018984;28;45378;-75
2021/10/28 20:42:21;;;;;;;;;18.25;16.50;;;;;;;;5018480;28;45393;-77
2021/10/28 20:44:47;;;;;;;;;20.25;18.00;;;;;;;;5018019;28;45871;-75
2021/10/28 20:47:13;;;;;;;;;19.25;18.25;;;;;;;;5019065;28;45375;-74
2021/10/28 20:49:38;;;;;;;;;21.00;21.00;;;;;;;;5017824;28;45497;-74
2021/10/28 20:52:04;;;;;;;;;26.50;20.75;;;;;;;;5018165;28;45240;-75
2021/10/28 20:54:29;;;;;;;;;23.75;20.25;;;;;;;;5018582;28;45219;-74
2021/10/28 20:57:01;;;;;;;;;30.25;26.75;;;;;;;;5018023;28;45232;-74
2021/10/28 20:59:26;;;;;;;;;59.75;45.75;;;;;;;;5018410;28;45477;-75
2021/10/28 21:01:51;;;;;;;;;25.50;24.50;;;;;;;;5018654;28;47744;-77
2021/10/28 21:04:17;;;;;;;;;25.00;21.75;;;;;;;;5017918;28;45253;-73
2021/10/28 21:06:42;;;;;;;;;39.75;32.50;;;;;;;;5019950;28;45340;-75
2021/10/28 21:09:08;;;;;;;;;24.00;18.75;;;;;;;;5019186;28;45245;-75
2021/10/28 21:11:37;;;;;;;;;15.25;15.00;;;;;;;;5016602;28;47326;-75
2021/10/28 21:14:07;;;;;;;;;17.50;14.25;;;;;;;;5018062;28;45427;-75
2021/10/28 21:16:33;;;;;;;;;22.75;20.50;;;;;;;;5016924;28;45357;-75
2021/10/28 21:18:58;;;;;;;;;39.75;33.00;;;;;;;;5017394;28;45183;-77
2021/10/28 21:21:24;;;;;;;;;27.25;24.25;;;;;;;;5017292;28;45446;-73
2021/10/28 21:23:49;;;;;;;;;20.50;18.00;;;;;;;;5017433;28;45489;-74
2021/10/28 21:26:14;;;;;;;;;23.50;19.00;;;;;;;;5016612;28;45427;-75
2021/10/28 21:28:40;;;;;;;;;17.00;17.00;;;;;;;;5019424;28;45595;-75
2021/10/28 21:31:06;;;;;;;;;63.50;50.00;;;;;;;;5019821;28;45422;-74
2021/10/28 21:33:32;;;;;;;;;21.50;20.50;;;;;;;;5017832;28;45490;-75
2021/10/28 21:35:58;;;;;;;;;23.25;22.00;;;;;;;;5017597;28;45369;-75
2021/10/28 21:38:24;;;;;;;;;21.25;19.50;;;;;;;;5018428;28;45533;-75
2021/10/28 21:40:49;;;;;;;;;17.75;15.25;;;;;;;;5017045;28;48167;-75
2021/10/28 21:43:15;;;;;;;;;26.25;20.50;;;;;;;;5018426;28;45379;-75
2021/10/28 21:45:41;;;;;;;;;20.75;19.25;;;;;;;;5018719;28;45379;-74
2021/10/28 21:48:07;;;;;;;;;19.50;19.00;;;;;;;;5017477;28;45349;-74
2021/10/28 21:50:35;;;;;;;;;23.50;19.50;;;;;;;;5016875;28;45421;-74
2021/10/28 21:53:06;;;;;;;;;16.75;15.00;;;;;;;;5016815;28;45319;-74
2021/10/28 22:03:39;;;;;;;;;23.25;21.00;;;;;;;;5021373;28;45367;-75
2021/10/28 22:24:54;;;;;;;;;63.25;49.25;;;;;;;;5015475;28;45428;-71
2021/10/28 22:27:21;;;;;;;;;16.50;16.25;;;;;;;;5016841;28;45439;-70
2021/10/28 22:29:47;;;;;;;;;20.75;19.25;;;;;;;;5016797;28;45244;-70
2021/10/28 22:32:14;;;;;;;;;22.25;20.75;;;;;;;;5015330;28;45498;-68
2021/10/28 22:34:40;;;;;;;;;16.25;16.25;;;;;;;;5014154;28;45371;-67
2021/10/28 22:37:20;;;;;;;;;19.50;15.00;;;;;;;;5015481;28;45353;-69
2021/10/28 22:42:16;;;;;;;;;17.75;17.75;;;;;;;;5014712;28;45399;-70
2021/10/28 22:44:42;;;;;;;;;17.75;16.75;;;;;;;;5014756;28;45349;-67
2021/10/28 22:47:07;;;;;;;;;19.25;17.50;;;;;;;;5015346;28;45361;-68
2021/10/28 22:49:33;;;;;;;;;19.75;16.00;;;;;;;;5014936;28;45605;-69
2021/10/28 22:52:05;;;;;;;;;16.75;15.75;;;;;;;;5014669;28;45568;-70
2021/10/28 22:54:30;;;;;;;;;15.50;14.25;;;;;;;;5013262;28;45333;-68
2021/10/28 22:56:57;;;;;;;;;21.00;20.25;;;;;;;;5014712;28;45308;-69
2021/10/28 22:59:22;;;;;;;;;19.25;15.75;;;;;;;;5015097;28;45402;-69
2021/10/28 23:01:58;;;;;;;;;18.25;15.50;;;;;;;;5018030;28;45482;-69
2021/10/28 23:04:47;;;;;;;;;19.25;18.25;;;;;;;;5018345;28;45445;-66
2021/10/28 23:07:25;;;;;;;;;19.00;17.25;;;;;;;;5018649;28;45279;-68
2021/10/28 23:23:01;;;;;;;;;19.25;16.50;;;;;;;;5017698;28;45516;-68
2021/10/28 23:25:26;;;;;;;;;18.50;16.50;;;;;;;;5017593;28;45307;-69
2021/10/28 23:27:51;;;;;;;;;14.25;14.00;;;;;;;;5018161;28;45439;-68
2021/10/28 23:30:16;;;;;;;;;19.75;17.50;;;;;;;;5017035;28;45594;-67
2021/10/28 23:32:42;;;;;;;;;19.50;17.50;;;;;;;;5034658;28;47087;-67
2021/10/28 23:35:07;;;;;;;;;15.75;12.75;;;;;;;;5037240;28;45441;-68
2021/10/28 23:37:32;;;;;;;;;17.50;15.50;;;;;;;;5035600;28;45450;-68
2021/10/28 23:39:58;;;;;;;;;20.25;18.50;;;;;;;;5037770;28;45628;-69
2021/10/28 23:42:23;;;;;;;;;16.00;15.50;;;;;;;;5037921;28;47645;-68
2021/10/28 23:44:48;;;;;;;;;19.50;16.50;;;;;;;;5037468;28;45491;-67
2021/10/28 23:47:13;;;;;;;;;20.00;17.50;;;;;;;;5037916;28;45307;-68
2021/10/28 23:49:39;;;;;;;;;14.25;14.00;;;;;;;;5037807;28;45446;-67
2021/10/28 23:52:04;;;;;;;;;19.00;15.75;;;;;;;;5035936;28;46515;-67
2021/10/28 23:54:29;;;;;;;;;20.00;15.25;;;;;;;;5037529;28;45367;-67
2021/10/28 23:56:55;;;;;;;;;15.25;14.50;;;;;;;;5037442;28;45260;-68
2021/10/28 23:59:20;;;;;;;;;20.50;20.00;;;;;;;;5035763;28;45325;-68
